sensor_id;sensor_type;location;lat;lon;timestamp;temperature;humidity
18998;DHT22;9632;51.018;4.284;2023-04-01T00:00:45;11.70;99.90
18998;DHT22;9632;51.018;4.284;2023-04-01T00:03:11;11.70;99.90
18998;DHT22;9632;51.018;4.284;2023-04-01T00:05:37;11.60;99.90
18998;DHT22;9632;51.018;4.284;2023-04-01T00:08:02;11.70;99.90
18998;DHT22;9632;51.018;4.284;2023-04-01T00:10:28;11.70;99.90
18998;DHT22;9632;51.018;4.284;2023-04-01T00:12:54;11.80;99.90
18998;DHT22;9632;51.018;4.284;2023-04-01T00:15:20;11.80;99.90
18998;DHT22;9632;51.018;4.284;2023-04-01T00:17:46;11.80;99.90
18998;DHT22;9632;51.018;4.284;2023-04-01T00:20:12;11.80;99.90
18998;DHT22;9632;51.018;4.284;2023-04-01T00:22:37;11.80;99.90
18998;DHT22;9632;51.018;4.284;2023-04-01T00:25:04;11.80;99.90
18998;DHT22;9632;51.018;4.284;2023-04-01T00:27:30;11.90;99.90
18998;DHT22;9632;51.018;4.284;2023-04-01T00:29:56;11.90;99.90
18998;DHT22;9632;51.018;4.284;2023-04-01T00:32:21;11.90;99.90
18998;DHT22;9632;51.018;4.284;2023-04-01T00:34:50;11.90;99.90
18998;DHT22;9632;51.018;4.284;2023-04-01T00:37:17;11.90;99.90
18998;DHT22;9632;51.018;4.284;2023-04-01T00:39:43;11.90;99.90
18998;DHT22;9632;51.018;4.284;2023-04-01T00:42:10;12.00;99.90
18998;DHT22;9632;51.018;4.284;2023-04-01T00:44:41;12.00;99.90
18998;DHT22;9632;51.018;4.284;2023-04-01T00:47:07;11.90;99.90
18998;DHT22;9632;51.018;4.284;2023-04-01T00:49:41;12.00;99.90
18998;DHT22;9632;51.018;4.284;2023-04-01T00:52:09;12.00;99.90
18998;DHT22;9632;51.018;4.284;2023-04-01T00:54:38;12.00;99.90
18998;DHT22;9632;51.018;4.284;2023-04-01T00:57:50;12.00;99.90
18998;DHT22;9632;51.018;4.284;2023-04-01T00:59:56;12.00;99.90
18998;DHT22;9632;51.018;4.284;2023-04-01T01:02:23;12.00;99.90
18998;DHT22;9632;51.018;4.284;2023-04-01T01:04:49;12.00;99.90
18998;DHT22;9632;51.018;4.284;2023-04-01T01:07:38;11.90;99.90
18998;DHT22;9632;51.018;4.284;2023-04-01T01:10:22;11.90;99.90
18998;DHT22;9632;51.018;4.284;2023-04-01T01:15:34;11.90;99.90
18998;DHT22;9632;51.018;4.284;2023-04-01T01:18:09;11.90;99.90
18998;DHT22;9632;51.018;4.284;2023-04-01T01:20:57;12.00;99.90
18998;DHT22;9632;51.018;4.284;2023-04-01T01:35:03;11.90;99.90
18998;DHT22;9632;51.018;4.284;2023-04-01T01:37:23;11.90;99.90
18998;DHT22;9632;51.018;4.284;2023-04-01T01:39:54;11.90;99.90
18998;DHT22;9632;51.018;4.284;2023-04-01T01:42:20;11.90;99.90
18998;DHT22;9632;51.018;4.284;2023-04-01T01:44:49;11.90;99.90
18998;DHT22;9632;51.018;4.284;2023-04-01T01:47:17;11.90;99.90
18998;DHT22;9632;51.018;4.284;2023-04-01T01:49:45;12.00;99.90
18998;DHT22;9632;51.018;4.284;2023-04-01T01:52:12;11.90;99.90
18998;DHT22;9632;51.018;4.284;2023-04-01T01:54:56;11.80;99.90
18998;DHT22;9632;51.018;4.284;2023-04-01T01:57:34;11.90;99.90
18998;DHT22;9632;51.018;4.284;2023-04-01T02:00:09;11.80;99.90
18998;DHT22;9632;51.018;4.284;2023-04-01T02:02:46;11.80;99.90
18998;DHT22;9632;51.018;4.284;2023-04-01T02:05:25;11.80;99.90
18998;DHT22;9632;51.018;4.284;2023-04-01T02:08:02;11.70;99.90
18998;DHT22;9632;51.018;4.284;2023-04-01T02:10:34;11.70;99.90
18998;DHT22;9632;51.018;4.284;2023-04-01T02:13:05;11.70;99.90
18998;DHT22;9632;51.018;4.284;2023-04-01T02:15:35;11.70;99.90
18998;DHT22;9632;51.018;4.284;2023-04-01T02:18:03;11.60;99.90
18998;DHT22;9632;51.018;4.284;2023-04-01T02:20:30;11.60;99.90
18998;DHT22;9632;51.018;4.284;2023-04-01T02:22:57;11.70;99.90
18998;DHT22;9632;51.018;4.284;2023-04-01T02:25:30;11.70;99.90
18998;DHT22;9632;51.018;4.284;2023-04-01T02:28:00;11.60;99.90
18998;DHT22;9632;51.018;4.284;2023-04-01T02:30:28;11.70;99.90
18998;DHT22;9632;51.018;4.284;2023-04-01T02:32:56;11.70;99.90
18998;DHT22;9632;51.018;4.284;2023-04-01T02:35:23;11.70;99.90
18998;DHT22;9632;51.018;4.284;2023-04-01T02:37:50;11.70;99.90
18998;DHT22;9632;51.018;4.284;2023-04-01T02:40:17;11.70;99.90
18998;DHT22;9632;51.018;4.284;2023-04-01T02:42:43;11.70;99.90
18998;DHT22;9632;51.018;4.284;2023-04-01T02:45:10;11.80;99.90
18998;DHT22;9632;51.018;4.284;2023-04-01T02:47:36;11.70;99.90
18998;DHT22;9632;51.018;4.284;2023-04-01T02:50:02;11.70;99.90
18998;DHT22;9632;51.018;4.284;2023-04-01T02:52:29;11.70;99.90
18998;DHT22;9632;51.018;4.284;2023-04-01T02:54:55;11.70;99.90
18998;DHT22;9632;51.018;4.284;2023-04-01T02:57:21;11.70;99.90
18998;DHT22;9632;51.018;4.284;2023-04-01T02:59:47;11.60;99.90
18998;DHT22;9632;51.018;4.284;2023-04-01T03:02:13;11.60;99.90
18998;DHT22;9632;51.018;4.284;2023-04-01T03:04:39;11.60;99.90
18998;DHT22;9632;51.018;4.284;2023-04-01T03:07:05;11.60;99.90
18998;DHT22;9632;51.018;4.284;2023-04-01T03:09:31;11.60;99.90
18998;DHT22;9632;51.018;4.284;2023-04-01T03:11:56;11.60;99.90
18998;DHT22;9632;51.018;4.284;2023-04-01T03:14:22;11.60;99.90
18998;DHT22;9632;51.018;4.284;2023-04-01T03:16:48;11.60;99.90
18998;DHT22;9632;51.018;4.284;2023-04-01T03:19:13;11.60;99.90
18998;DHT22;9632;51.018;4.284;2023-04-01T03:21:40;11.60;99.90
18998;DHT22;9632;51.018;4.284;2023-04-01T03:24:05;11.60;99.90
18998;DHT22;9632;51.018;4.284;2023-04-01T03:26:31;11.60;99.90
18998;DHT22;9632;51.018;4.284;2023-04-01T03:28:57;11.60;99.90
18998;DHT22;9632;51.018;4.284;2023-04-01T03:31:23;11.50;99.90
18998;DHT22;9632;51.018;4.284;2023-04-01T03:33:49;11.60;99.90
18998;DHT22;9632;51.018;4.284;2023-04-01T03:36:15;11.60;99.90
18998;DHT22;9632;51.018;4.284;2023-04-01T03:38:42;11.60;99.90
18998;DHT22;9632;51.018;4.284;2023-04-01T03:41:12;11.70;99.90
18998;DHT22;9632;51.018;4.284;2023-04-01T03:43:38;11.70;99.90
18998;DHT22;9632;51.018;4.284;2023-04-01T03:46:04;11.70;99.90
18998;DHT22;9632;51.018;4.284;2023-04-01T03:48:29;11.60;99.90
18998;DHT22;9632;51.018;4.284;2023-04-01T03:50:55;11.60;99.90
18998;DHT22;9632;51.018;4.284;2023-04-01T03:53:21;11.70;99.90
18998;DHT22;9632;51.018;4.284;2023-04-01T03:55:47;11.70;99.90
18998;DHT22;9632;51.018;4.284;2023-04-01T03:58:13;11.60;99.90
18998;DHT22;9632;51.018;4.284;2023-04-01T04:00:39;11.60;99.90
18998;DHT22;9632;51.018;4.284;2023-04-01T04:03:06;11.60;99.90
18998;DHT22;9632;51.018;4.284;2023-04-01T04:05:32;11.70;99.90
18998;DHT22;9632;51.018;4.284;2023-04-01T04:07:57;11.60;99.90
18998;DHT22;9632;51.018;4.284;2023-04-01T04:10:23;11.70;99.90
18998;DHT22;9632;51.018;4.284;2023-04-01T04:12:51;11.70;99.90
18998;DHT22;9632;51.018;4.284;2023-04-01T04:15:17;11.70;99.90
18998;DHT22;9632;51.018;4.284;2023-04-01T04:17:44;11.70;99.90
18998;DHT22;9632;51.018;4.284;2023-04-01T04:20:10;11.60;99.90
18998;DHT22;9632;51.018;4.284;2023-04-01T04:22:36;11.60;99.90
18998;DHT22;9632;51.018;4.284;2023-04-01T04:25:01;11.60;99.90
18998;DHT22;9632;51.018;4.284;2023-04-01T04:27:27;11.60;99.90
18998;DHT22;9632;51.018;4.284;2023-04-01T04:29:52;11.60;99.90
18998;DHT22;9632;51.018;4.284;2023-04-01T04:32:18;11.60;99.90
18998;DHT22;9632;51.018;4.284;2023-04-01T04:34:44;11.60;99.90
18998;DHT22;9632;51.018;4.284;2023-04-01T04:37:09;11.60;99.90
18998;DHT22;9632;51.018;4.284;2023-04-01T04:39:35;11.60;99.90
18998;DHT22;9632;51.018;4.284;2023-04-01T04:42:01;11.50;99.90
18998;DHT22;9632;51.018;4.284;2023-04-01T04:44:26;11.50;99.90
18998;DHT22;9632;51.018;4.284;2023-04-01T04:46:52;11.50;99.90
18998;DHT22;9632;51.018;4.284;2023-04-01T04:49:17;11.40;99.90
18998;DHT22;9632;51.018;4.284;2023-04-01T04:51:44;11.40;99.90
18998;DHT22;9632;51.018;4.284;2023-04-01T04:54:09;11.40;99.90
18998;DHT22;9632;51.018;4.284;2023-04-01T04:56:35;11.40;99.90
18998;DHT22;9632;51.018;4.284;2023-04-01T04:59:01;11.30;99.90
18998;DHT22;9632;51.018;4.284;2023-04-01T05:01:27;11.30;99.90
18998;DHT22;9632;51.018;4.284;2023-04-01T05:03:53;11.40;99.90
18998;DHT22;9632;51.018;4.284;2023-04-01T05:06:19;11.50;99.90
18998;DHT22;9632;51.018;4.284;2023-04-01T05:08:45;11.50;99.90
18998;DHT22;9632;51.018;4.284;2023-04-01T05:11:20;11.50;99.90
18998;DHT22;9632;51.018;4.284;2023-04-01T05:13:46;11.50;99.90
18998;DHT22;9632;51.018;4.284;2023-04-01T05:16:17;11.50;99.90
18998;DHT22;9632;51.018;4.284;2023-04-01T05:18:43;11.30;99.90
18998;DHT22;9632;51.018;4.284;2023-04-01T05:21:10;11.30;99.90
18998;DHT22;9632;51.018;4.284;2023-04-01T05:23:37;11.30;99.90
18998;DHT22;9632;51.018;4.284;2023-04-01T05:26:04;11.30;99.90
18998;DHT22;9632;51.018;4.284;2023-04-01T05:28:30;11.30;99.90
18998;DHT22;9632;51.018;4.284;2023-04-01T05:30:58;11.30;99.90
18998;DHT22;9632;51.018;4.284;2023-04-01T05:33:24;11.30;99.90
18998;DHT22;9632;51.018;4.284;2023-04-01T05:35:50;11.30;99.90
18998;DHT22;9632;51.018;4.284;2023-04-01T05:38:15;11.30;99.90
18998;DHT22;9632;51.018;4.284;2023-04-01T05:40:41;11.30;99.90
18998;DHT22;9632;51.018;4.284;2023-04-01T05:43:07;11.20;99.90
18998;DHT22;9632;51.018;4.284;2023-04-01T05:45:32;11.20;99.90
18998;DHT22;9632;51.018;4.284;2023-04-01T05:47:59;11.30;99.90
18998;DHT22;9632;51.018;4.284;2023-04-01T05:50:25;11.30;99.90
18998;DHT22;9632;51.018;4.284;2023-04-01T05:52:51;11.30;99.90
18998;DHT22;9632;51.018;4.284;2023-04-01T05:55:16;11.40;99.90
18998;DHT22;9632;51.018;4.284;2023-04-01T05:57:45;11.30;99.90
18998;DHT22;9632;51.018;4.284;2023-04-01T06:00:11;11.40;99.90
18998;DHT22;9632;51.018;4.284;2023-04-01T06:02:37;11.40;99.90
18998;DHT22;9632;51.018;4.284;2023-04-01T06:07:36;11.40;99.90
18998;DHT22;9632;51.018;4.284;2023-04-01T06:10:05;11.30;99.90
18998;DHT22;9632;51.018;4.284;2023-04-01T06:12:48;11.40;99.90
18998;DHT22;9632;51.018;4.284;2023-04-01T06:15:23;11.40;99.90
18998;DHT22;9632;51.018;4.284;2023-04-01T06:21:08;11.30;99.90
18998;DHT22;9632;51.018;4.284;2023-04-01T06:40:45;11.30;99.90
18998;DHT22;9632;51.018;4.284;2023-04-01T06:46:11;11.30;99.90
18998;DHT22;9632;51.018;4.284;2023-04-01T06:54:28;11.30;99.90
18998;DHT22;9632;51.018;4.284;2023-04-01T06:59:44;11.20;99.90
18998;DHT22;9632;51.018;4.284;2023-04-01T07:04:46;11.20;99.90
18998;DHT22;9632;51.018;4.284;2023-04-01T07:07:34;11.30;99.90
18998;DHT22;9632;51.018;4.284;2023-04-01T07:10:05;11.30;99.90
18998;DHT22;9632;51.018;4.284;2023-04-01T07:13:02;11.40;99.90
18998;DHT22;9632;51.018;4.284;2023-04-01T07:15:34;11.40;99.90
18998;DHT22;9632;51.018;4.284;2023-04-01T07:18:28;11.40;99.90
18998;DHT22;9632;51.018;4.284;2023-04-01T07:20:56;11.40;99.90
18998;DHT22;9632;51.018;4.284;2023-04-01T07:23:26;11.40;99.90
18998;DHT22;9632;51.018;4.284;2023-04-01T07:26:07;11.50;99.90
18998;DHT22;9632;51.018;4.284;2023-04-01T07:28:36;11.50;99.90
18998;DHT22;9632;51.018;4.284;2023-04-01T07:42:19;11.60;99.90
18998;DHT22;9632;51.018;4.284;2023-04-01T07:47:34;11.60;99.90
18998;DHT22;9632;51.018;4.284;2023-04-01T07:50:35;11.70;99.90
18998;DHT22;9632;51.018;4.284;2023-04-01T07:56:17;11.70;99.90
18998;DHT22;9632;51.018;4.284;2023-04-01T08:01:36;11.70;99.90
18998;DHT22;9632;51.018;4.284;2023-04-01T08:06:53;11.80;99.90
18998;DHT22;9632;51.018;4.284;2023-04-01T08:12:04;11.80;99.90
18998;DHT22;9632;51.018;4.284;2023-04-01T08:14:48;11.80;99.90
18998;DHT22;9632;51.018;4.284;2023-04-01T08:17:39;11.80;99.90
18998;DHT22;9632;51.018;4.284;2023-04-01T08:23:12;11.90;99.90
18998;DHT22;9632;51.018;4.284;2023-04-01T08:25:50;11.80;99.90
18998;DHT22;9632;51.018;4.284;2023-04-01T08:34:21;11.80;99.90
18998;DHT22;9632;51.018;4.284;2023-04-01T08:37:02;11.70;99.90
18998;DHT22;9632;51.018;4.284;2023-04-01T08:39:32;11.80;99.90
18998;DHT22;9632;51.018;4.284;2023-04-01T09:09:40;12.10;99.90
18998;DHT22;9632;51.018;4.284;2023-04-01T09:18:17;12.20;99.90
18998;DHT22;9632;51.018;4.284;2023-04-01T09:40:25;12.20;99.90
18998;DHT22;9632;51.018;4.284;2023-04-01T09:51:46;12.30;99.90
18998;DHT22;9632;51.018;4.284;2023-04-01T09:57:15;12.40;99.90
18998;DHT22;9632;51.018;4.284;2023-04-01T10:27:49;12.60;99.90
18998;DHT22;9632;51.018;4.284;2023-04-01T10:43:58;12.30;99.90
18998;DHT22;9632;51.018;4.284;2023-04-01T11:12:16;12.40;99.90
18998;DHT22;9632;51.018;4.284;2023-04-01T11:20:49;12.30;99.90
18998;DHT22;9632;51.018;4.284;2023-04-01T11:23:45;12.30;99.90
18998;DHT22;9632;51.018;4.284;2023-04-01T11:26:34;12.40;99.90
18998;DHT22;9632;51.018;4.284;2023-04-01T11:31:58;12.50;99.90
18998;DHT22;9632;51.018;4.284;2023-04-01T11:34:50;12.50;99.90
18998;DHT22;9632;51.018;4.284;2023-04-01T11:37:21;12.50;99.90
18998;DHT22;9632;51.018;4.284;2023-04-01T11:40:31;12.60;99.90
18998;DHT22;9632;51.018;4.284;2023-04-01T11:48:54;12.90;99.90
18998;DHT22;9632;51.018;4.284;2023-04-01T12:08:29;12.80;99.90
18998;DHT22;9632;51.018;4.284;2023-04-01T12:31:13;12.70;99.90
18998;DHT22;9632;51.018;4.284;2023-04-01T12:41:46;12.80;99.90
18998;DHT22;9632;51.018;4.284;2023-04-01T12:47:21;12.90;99.90
18998;DHT22;9632;51.018;4.284;2023-04-01T12:55:46;13.00;99.90
18998;DHT22;9632;51.018;4.284;2023-04-01T13:28:23;12.90;99.90
18998;DHT22;9632;51.018;4.284;2023-04-01T13:31:06;13.00;99.90
18998;DHT22;9632;51.018;4.284;2023-04-01T13:33:45;13.00;99.90
18998;DHT22;9632;51.018;4.284;2023-04-01T13:44:49;12.80;99.90
18998;DHT22;9632;51.018;4.284;2023-04-01T13:53:34;12.80;99.90
18998;DHT22;9632;51.018;4.284;2023-04-01T13:59:29;12.70;99.90
18998;DHT22;9632;51.018;4.284;2023-04-01T14:04:45;12.70;99.90
18998;DHT22;9632;51.018;4.284;2023-04-01T14:13:07;12.70;99.90
18998;DHT22;9632;51.018;4.284;2023-04-01T14:21:27;12.90;99.90
18998;DHT22;9632;51.018;4.284;2023-04-01T14:29:22;13.10;99.90
18998;DHT22;9632;51.018;4.284;2023-04-01T14:40:24;12.80;99.90
18998;DHT22;9632;51.018;4.284;2023-04-01T14:48:29;12.80;99.90
18998;DHT22;9632;51.018;4.284;2023-04-01T14:51:28;12.90;99.90
18998;DHT22;9632;51.018;4.284;2023-04-01T14:59:51;12.80;99.90
18998;DHT22;9632;51.018;4.284;2023-04-01T15:19:12;12.70;99.90
18998;DHT22;9632;51.018;4.284;2023-04-01T15:24:20;12.60;99.90
18998;DHT22;9632;51.018;4.284;2023-04-01T15:34:44;12.60;99.90
18998;DHT22;9632;51.018;4.284;2023-04-01T15:37:46;12.70;99.90
18998;DHT22;9632;51.018;4.284;2023-04-01T15:40:24;12.60;99.90
18998;DHT22;9632;51.018;4.284;2023-04-01T15:53:52;12.50;99.90
18998;DHT22;9632;51.018;4.284;2023-04-01T15:59:44;12.40;99.90
18998;DHT22;9632;51.018;4.284;2023-04-01T16:02:34;12.40;99.90
18998;DHT22;9632;51.018;4.284;2023-04-01T16:17:23;12.30;99.90
18998;DHT22;9632;51.018;4.284;2023-04-01T16:22:39;12.20;99.90
18998;DHT22;9632;51.018;4.284;2023-04-01T16:25:43;12.20;99.90
18998;DHT22;9632;51.018;4.284;2023-04-01T16:31:30;12.10;99.90
18998;DHT22;9632;51.018;4.284;2023-04-01T16:36:46;12.10;99.90
18998;DHT22;9632;51.018;4.284;2023-04-01T16:39:41;12.20;99.90
18998;DHT22;9632;51.018;4.284;2023-04-01T16:42:13;12.20;99.90
18998;DHT22;9632;51.018;4.284;2023-04-01T16:47:58;12.20;99.90
18998;DHT22;9632;51.018;4.284;2023-04-01T16:50:52;12.20;99.90
18998;DHT22;9632;51.018;4.284;2023-04-01T16:53:47;12.20;99.90
18998;DHT22;9632;51.018;4.284;2023-04-01T16:56:21;12.10;99.90
18998;DHT22;9632;51.018;4.284;2023-04-01T17:01:53;12.00;99.90
18998;DHT22;9632;51.018;4.284;2023-04-01T17:04:45;12.10;99.90
18998;DHT22;9632;51.018;4.284;2023-04-01T17:12:49;12.00;99.90
18998;DHT22;9632;51.018;4.284;2023-04-01T17:20:48;12.00;99.90
18998;DHT22;9632;51.018;4.284;2023-04-01T17:23:43;12.00;99.90
18998;DHT22;9632;51.018;4.284;2023-04-01T17:26:20;12.00;99.90
18998;DHT22;9632;51.018;4.284;2023-04-01T17:28:50;12.10;99.90
18998;DHT22;9632;51.018;4.284;2023-04-01T17:37:22;12.10;99.90
18998;DHT22;9632;51.018;4.284;2023-04-01T17:42:56;12.10;99.90
18998;DHT22;9632;51.018;4.284;2023-04-01T17:45:54;12.00;99.90
18998;DHT22;9632;51.018;4.284;2023-04-01T17:48:35;12.00;99.90
18998;DHT22;9632;51.018;4.284;2023-04-01T17:51:29;12.00;99.90
18998;DHT22;9632;51.018;4.284;2023-04-01T18:12:33;11.70;99.90
18998;DHT22;9632;51.018;4.284;2023-04-01T18:15:16;11.70;99.90
18998;DHT22;9632;51.018;4.284;2023-04-01T18:20:28;11.70;99.90
18998;DHT22;9632;51.018;4.284;2023-04-01T18:23:02;11.70;99.90
18998;DHT22;9632;51.018;4.284;2023-04-01T18:31:11;11.60;99.90
18998;DHT22;9632;51.018;4.284;2023-04-01T18:33:56;11.60;99.90
18998;DHT22;9632;51.018;4.284;2023-04-01T18:36:47;11.50;99.90
18998;DHT22;9632;51.018;4.284;2023-04-01T18:39:46;11.50;99.90
18998;DHT22;9632;51.018;4.284;2023-04-01T18:45:28;11.50;99.90
18998;DHT22;9632;51.018;4.284;2023-04-01T18:51:09;11.60;99.90
18998;DHT22;9632;51.018;4.284;2023-04-01T18:54:10;11.60;99.90
18998;DHT22;9632;51.018;4.284;2023-04-01T18:56:46;11.50;99.90
18998;DHT22;9632;51.018;4.284;2023-04-01T18:59:21;11.40;99.90
18998;DHT22;9632;51.018;4.284;2023-04-01T19:02:02;11.40;99.90
18998;DHT22;9632;51.018;4.284;2023-04-01T19:04:37;11.40;99.90
18998;DHT22;9632;51.018;4.284;2023-04-01T19:13:09;11.40;99.90
18998;DHT22;9632;51.018;4.284;2023-04-01T19:21:42;11.40;99.90
18998;DHT22;9632;51.018;4.284;2023-04-01T19:26:53;11.40;99.90
18998;DHT22;9632;51.018;4.284;2023-04-01T19:35:35;11.30;99.90
18998;DHT22;9632;51.018;4.284;2023-04-01T19:38:07;11.30;99.90
18998;DHT22;9632;51.018;4.284;2023-04-01T19:40:47;11.30;99.90
18998;DHT22;9632;51.018;4.284;2023-04-01T19:46:26;11.30;99.90
18998;DHT22;9632;51.018;4.284;2023-04-01T19:54:38;11.30;99.90
18998;DHT22;9632;51.018;4.284;2023-04-01T20:00:28;11.30;99.90
18998;DHT22;9632;51.018;4.284;2023-04-01T20:03:10;11.30;99.90
18998;DHT22;9632;51.018;4.284;2023-04-01T20:05:51;11.40;99.90
18998;DHT22;9632;51.018;4.284;2023-04-01T20:08:43;11.40;99.90
18998;DHT22;9632;51.018;4.284;2023-04-01T20:16:49;11.40;99.90
18998;DHT22;9632;51.018;4.284;2023-04-01T20:19:45;11.30;99.90
18998;DHT22;9632;51.018;4.284;2023-04-01T20:24:59;11.40;99.90
18998;DHT22;9632;51.018;4.284;2023-04-01T20:27:32;11.40;99.90
18998;DHT22;9632;51.018;4.284;2023-04-01T20:30:18;11.40;99.90
18998;DHT22;9632;51.018;4.284;2023-04-01T20:44:13;11.50;99.90
18998;DHT22;9632;51.018;4.284;2023-04-01T20:49:25;11.50;99.90
18998;DHT22;9632;51.018;4.284;2023-04-01T20:52:23;11.60;99.90
18998;DHT22;9632;51.018;4.284;2023-04-01T21:13:40;11.70;99.90
18998;DHT22;9632;51.018;4.284;2023-04-01T21:19:03;11.70;99.90
18998;DHT22;9632;51.018;4.284;2023-04-01T21:33:07;11.70;99.90
18998;DHT22;9632;51.018;4.284;2023-04-01T21:35:50;11.80;99.90
18998;DHT22;9632;51.018;4.284;2023-04-01T21:38:23;11.80;99.90
18998;DHT22;9632;51.018;4.284;2023-04-01T21:41:02;11.70;99.90
18998;DHT22;9632;51.018;4.284;2023-04-01T21:44:01;11.70;99.90
18998;DHT22;9632;51.018;4.284;2023-04-01T21:49:21;11.70;99.90
18998;DHT22;9632;51.018;4.284;2023-04-01T21:54:57;11.60;99.90
18998;DHT22;9632;51.018;4.284;2023-04-01T22:05:50;11.60;99.90
18998;DHT22;9632;51.018;4.284;2023-04-01T22:11:17;11.60;99.90
18998;DHT22;9632;51.018;4.284;2023-04-01T22:17:02;11.60;99.90
18998;DHT22;9632;51.018;4.284;2023-04-01T22:19:55;11.60;99.90
18998;DHT22;9632;51.018;4.284;2023-04-01T22:22:22;11.60;99.90
18998;DHT22;9632;51.018;4.284;2023-04-01T22:24:57;11.70;99.90
18998;DHT22;9632;51.018;4.284;2023-04-01T22:27:34;11.60;99.90
18998;DHT22;9632;51.018;4.284;2023-04-01T22:30:19;11.60;99.90
18998;DHT22;9632;51.018;4.284;2023-04-01T22:36:26;11.60;99.90
18998;DHT22;9632;51.018;4.284;2023-04-01T22:39:01;11.70;99.90
18998;DHT22;9632;51.018;4.284;2023-04-01T22:47:04;11.70;99.90
18998;DHT22;9632;51.018;4.284;2023-04-01T22:49:40;11.60;99.90
18998;DHT22;9632;51.018;4.284;2023-04-01T22:52:20;11.60;99.90
18998;DHT22;9632;51.018;4.284;2023-04-01T22:54:52;11.60;99.90
18998;DHT22;9632;51.018;4.284;2023-04-01T22:59:50;11.60;99.90
18998;DHT22;9632;51.018;4.284;2023-04-01T23:02:30;11.70;99.90
18998;DHT22;9632;51.018;4.284;2023-04-01T23:05:00;11.70;99.90
18998;DHT22;9632;51.018;4.284;2023-04-01T23:10:39;11.60;99.90
18998;DHT22;9632;51.018;4.284;2023-04-01T23:13:13;11.60;99.90
18998;DHT22;9632;51.018;4.284;2023-04-01T23:15:39;11.50;99.90
18998;DHT22;9632;51.018;4.284;2023-04-01T23:24:00;11.30;99.90
18998;DHT22;9632;51.018;4.284;2023-04-01T23:26:49;11.20;99.90
18998;DHT22;9632;51.018;4.284;2023-04-01T23:29:21;11.20;99.90
18998;DHT22;9632;51.018;4.284;2023-04-01T23:31:56;11.20;99.90
18998;DHT22;9632;51.018;4.284;2023-04-01T23:34:28;11.20;99.90
18998;DHT22;9632;51.018;4.284;2023-04-01T23:36:58;11.20;99.90
18998;DHT22;9632;51.018;4.284;2023-04-01T23:39:34;11.20;99.90
18998;DHT22;9632;51.018;4.284;2023-04-01T23:42:21;11.20;99.90
18998;DHT22;9632;51.018;4.284;2023-04-01T23:44:55;11.20;99.90
18998;DHT22;9632;51.018;4.284;2023-04-01T23:47:24;11.20;99.90
18998;DHT22;9632;51.018;4.284;2023-04-01T23:49:54;11.20;99.90
18998;DHT22;9632;51.018;4.284;2023-04-01T23:52:27;11.10;99.90
18998;DHT22;9632;51.018;4.284;2023-04-01T23:54:59;11.10;99.90
18998;DHT22;9632;51.018;4.284;2023-04-01T23:57:35;11.00;99.90
